createdAt,value
2023-02-15T00:00:45.557Z,1.59
2023-02-15T00:02:47.028Z,1.58
2023-02-15T00:04:48.573Z,1.56
2023-02-15T00:06:50.657Z,1.55
2023-02-15T00:08:52.418Z,1.54
2023-02-15T00:10:54.245Z,1.51
2023-02-15T00:12:55.673Z,1.50
2023-02-15T00:14:57.142Z,1.49
2023-02-15T00:17:00.742Z,1.46
2023-02-15T00:19:02.891Z,1.44
2023-02-15T00:21:09.659Z,1.42
2023-02-15T00:23:11.101Z,1.41
2023-02-15T00:25:12.573Z,1.39
2023-02-15T00:27:14.065Z,1.37
2023-02-15T00:29:17.534Z,1.37
2023-02-15T00:31:19.381Z,1.35
2023-02-15T00:33:20.860Z,1.34
2023-02-15T00:35:22.550Z,1.34
2023-02-15T00:37:24.020Z,1.33
2023-02-15T00:39:25.595Z,1.31
2023-02-15T00:41:27.116Z,1.28
2023-02-15T00:43:30.833Z,1.27
2023-02-15T00:45:32.285Z,1.25
2023-02-15T00:47:33.760Z,1.25
2023-02-15T00:49:35.233Z,1.25
2023-02-15T00:51:36.877Z,1.23
2023-02-15T00:53:38.349Z,1.22
2023-02-15T00:55:41.250Z,1.22
2023-02-15T00:57:42.686Z,1.22
2023-02-15T00:59:44.150Z,1.22
2023-02-15T01:01:45.696Z,1.23
2023-02-15T01:03:47.690Z,1.22
2023-02-15T01:05:50.326Z,1.22
2023-02-15T01:07:54.057Z,1.24
2023-02-15T01:09:55.897Z,1.24
2023-02-15T01:11:57.382Z,1.25
2023-02-15T01:13:59.526Z,1.26
2023-02-15T01:16:01.770Z,1.25
2023-02-15T01:18:03.655Z,1.25
2023-02-15T01:20:06.131Z,1.25
2023-02-15T01:22:07.601Z,1.25
2023-02-15T01:24:14.351Z,1.25
2023-02-15T01:26:16.385Z,1.22
2023-02-15T01:28:17.895Z,1.22
2023-02-15T01:30:19.585Z,1.21
2023-02-15T01:32:21.118Z,1.21
2023-02-15T01:34:22.585Z,1.19
2023-02-15T01:36:24.148Z,1.19
2023-02-15T01:38:25.589Z,1.18
2023-02-15T01:40:27.081Z,1.15
2023-02-15T01:42:29.885Z,1.14
2023-02-15T01:44:51.723Z,1.08
2023-02-15T01:46:54.676Z,1.03
2023-02-15T01:49:26.128Z,1.02
2023-02-15T01:51:31.718Z,1.02
2023-02-15T01:53:48.577Z,1.01
2023-02-15T01:56:31.484Z,1.01
2023-02-15T01:58:35.886Z,1.00
2023-02-15T02:00:37.508Z,0.99
2023-02-15T02:02:39.727Z,1.00
2023-02-15T02:04:44.664Z,0.99
2023-02-15T02:06:48.934Z,0.97
2023-02-15T02:08:50.750Z,0.95
2023-02-15T02:10:52.188Z,0.95
2023-02-15T02:12:58.821Z,0.94
2023-02-15T02:15:00.413Z,0.90
2023-02-15T02:17:07.548Z,0.88
2023-02-15T02:19:52.144Z,0.88
2023-02-15T02:22:16.455Z,0.86
2023-02-15T02:24:33.664Z,0.83
2023-02-15T02:26:47.226Z,0.81
2023-02-15T02:29:10.017Z,0.78
2023-02-15T02:31:39.471Z,0.75
2023-02-15T02:33:49.578Z,0.73
2023-02-15T02:36:12.761Z,0.69
2023-02-15T02:38:36.732Z,0.66
2023-02-15T02:40:51.673Z,0.65
2023-02-15T02:43:15.684Z,0.66
2023-02-15T02:45:26.388Z,0.66
2023-02-15T02:47:34.122Z,0.65
2023-02-15T02:49:38.541Z,0.63
2023-02-15T02:51:40.007Z,0.62
2023-02-15T02:53:41.867Z,0.61
2023-02-15T02:55:50.499Z,0.59
2023-02-15T02:57:56.848Z,0.57
2023-02-15T03:00:00.581Z,0.57
2023-02-15T03:02:41.613Z,0.57
2023-02-15T03:04:58.882Z,0.58
2023-02-15T03:07:08.500Z,0.56
2023-02-15T03:09:19.119Z,0.56
2023-02-15T03:11:20.569Z,0.55
2023-02-15T03:13:23.152Z,0.53
2023-02-15T03:15:50.538Z,0.53
2023-02-15T03:17:58.572Z,0.51
2023-02-15T03:20:05.396Z,0.47
2023-02-15T03:22:20.356Z,0.46
2023-02-15T03:24:27.433Z,0.44
2023-02-15T03:26:31.358Z,0.41
2023-02-15T03:28:39.503Z,0.40
2023-02-15T03:30:45.621Z,0.38
2023-02-15T03:32:49.803Z,0.37
2023-02-15T03:34:51.470Z,0.35
2023-02-15T03:37:00.703Z,0.35
2023-02-15T03:39:13.280Z,0.35
2023-02-15T03:41:17.145Z,0.31
2023-02-15T03:43:54.021Z,0.31
2023-02-15T03:46:01.533Z,0.26
2023-02-15T03:48:06.295Z,0.22
2023-02-15T03:50:35.216Z,0.20
2023-02-15T03:52:37.875Z,0.18
2023-02-15T03:54:43.665Z,0.19
2023-02-15T03:57:05.334Z,0.19
2023-02-15T03:59:25.468Z,0.17
2023-02-15T04:01:56.565Z,0.18
2023-02-15T04:04:08.476Z,0.18
2023-02-15T04:06:09.942Z,0.15
2023-02-15T04:08:12.637Z,0.14
2023-02-15T04:10:32.903Z,0.11
2023-02-15T04:12:34.404Z,0.08
2023-02-15T04:14:54.646Z,0.06
2023-02-15T04:16:56.165Z,0.04
2023-02-15T04:19:16.218Z,0.06
2023-02-15T04:21:36.549Z,0.04
2023-02-15T04:23:56.248Z,0.02
2023-02-15T04:25:57.685Z,0.02
2023-02-15T04:27:59.132Z,-0.01
2023-02-15T04:30:00.657Z,-0.01
2023-02-15T04:32:03.285Z,-0.01
2023-02-15T04:34:04.777Z,-0.02
2023-02-15T04:36:06.359Z,-0.01
2023-02-15T04:38:07.829Z,-0.01
2023-02-15T04:40:11.655Z,-0.01
2023-02-15T04:42:13.133Z,-0.03
2023-02-15T04:44:14.673Z,-0.02
2023-02-15T04:46:16.177Z,-0.04
2023-02-15T04:48:18.674Z,-0.07
2023-02-15T04:50:20.178Z,-0.08
2023-02-15T04:52:21.975Z,-0.10
2023-02-15T04:54:23.520Z,-0.12
2023-02-15T04:56:25.041Z,-0.12
2023-02-15T04:58:26.485Z,-0.12
2023-02-15T05:00:28.468Z,-0.14
2023-02-15T05:02:29.943Z,-0.16
2023-02-15T05:04:31.661Z,-0.24
2023-02-15T05:06:33.148Z,-0.33
2023-02-15T05:08:34.615Z,-0.33
2023-02-15T05:10:36.044Z,-0.32
2023-02-15T05:12:37.557Z,-0.31
2023-02-15T05:14:38.976Z,-0.30
2023-02-15T05:16:40.509Z,-0.30
2023-02-15T05:18:42.102Z,-0.28
2023-02-15T05:20:43.646Z,-0.28
2023-02-15T05:22:45.166Z,-0.29
2023-02-15T05:25:05.316Z,-0.29
2023-02-15T05:27:25.114Z,-0.30
2023-02-15T05:29:26.557Z,-0.30
2023-02-15T05:31:28.609Z,-0.29
2023-02-15T05:33:30.354Z,-0.29
2023-02-15T05:35:33.024Z,-0.29
2023-02-15T05:37:34.817Z,-0.31
2023-02-15T05:39:36.270Z,-0.32
2023-02-15T05:41:37.745Z,-0.34
2023-02-15T05:43:39.830Z,-0.35
2023-02-15T05:45:41.337Z,-0.38
2023-02-15T05:47:43.371Z,-0.39
2023-02-15T05:49:44.793Z,-0.41
2023-02-15T05:51:46.326Z,-0.41
2023-02-15T05:53:47.789Z,-0.43
2023-02-15T05:55:49.252Z,-0.44
2023-02-15T05:57:50.729Z,-0.47
2023-02-15T05:59:52.172Z,-0.48
2023-02-15T06:01:53.620Z,-0.51
2023-02-15T06:03:56.726Z,-0.51
2023-02-15T06:05:58.208Z,-0.55
2023-02-15T06:07:59.794Z,-0.56
2023-02-15T06:10:01.242Z,-0.58
2023-02-15T06:12:03.160Z,-0.59
2023-02-15T06:14:04.743Z,-0.61
2023-02-15T06:16:07.070Z,-0.63
2023-02-15T06:18:08.823Z,-0.63
2023-02-15T06:20:10.896Z,-0.64
2023-02-15T06:22:14.900Z,-0.67
2023-02-15T06:24:16.654Z,-0.71
2023-02-15T06:26:18.076Z,-0.73
2023-02-15T06:28:19.583Z,-0.74
2023-02-15T06:30:21.395Z,-0.76
2023-02-15T06:32:22.959Z,-0.77
2023-02-15T06:34:24.529Z,-0.77
2023-02-15T06:36:26.020Z,-0.77
2023-02-15T06:38:27.842Z,-0.78
2023-02-15T06:40:29.270Z,-0.79
2023-02-15T06:42:31.295Z,-0.80
2023-02-15T06:44:32.762Z,-0.81
2023-02-15T06:46:34.386Z,-0.81
2023-02-15T06:48:36.329Z,-0.83
2023-02-15T06:50:38.625Z,-0.82
2023-02-15T06:52:40.068Z,-0.83
2023-02-15T06:54:41.615Z,-0.83
2023-02-15T06:56:44.501Z,-0.84
2023-02-15T06:58:50.430Z,-0.85
2023-02-15T07:00:52.723Z,-0.86
2023-02-15T07:02:56.643Z,-0.85
2023-02-15T07:04:58.228Z,-0.86
2023-02-15T07:06:59.697Z,-0.86
2023-02-15T07:09:01.222Z,-0.87
2023-02-15T07:11:23.070Z,-0.88
2023-02-15T07:13:24.511Z,-0.91
2023-02-15T07:15:26.030Z,-0.90
2023-02-15T07:17:36.941Z,-0.90
2023-02-15T07:19:38.574Z,-0.92
2023-02-15T07:21:40.065Z,-0.92
2023-02-15T07:23:41.600Z,-0.92
2023-02-15T07:25:43.067Z,-0.92
2023-02-15T07:27:45.750Z,-0.93
2023-02-15T07:29:47.361Z,-0.91
2023-02-15T07:31:48.825Z,-0.90
2023-02-15T07:33:50.259Z,-0.88
2023-02-15T07:35:58.859Z,-0.87
2023-02-15T07:38:01.002Z,-0.87
2023-02-15T07:40:02.501Z,-0.86
2023-02-15T07:42:04.023Z,-0.82
2023-02-15T07:44:05.693Z,-0.80
2023-02-15T07:46:13.290Z,-0.79
2023-02-15T07:48:14.769Z,-0.77
2023-02-15T07:50:16.325Z,-0.77
2023-02-15T07:52:17.777Z,-0.75
2023-02-15T07:54:19.320Z,-0.73
2023-02-15T07:56:20.795Z,-0.69
2023-02-15T07:58:22.239Z,-0.66
2023-02-15T08:00:26.755Z,-0.61
2023-02-15T08:02:29.893Z,-0.60
2023-02-15T08:04:32.131Z,-0.57
2023-02-15T08:06:36.144Z,-0.53
2023-02-15T08:08:38.636Z,-0.51
2023-02-15T08:10:58.644Z,-0.49
2023-02-15T08:13:00.158Z,-0.45
2023-02-15T08:15:01.613Z,-0.42
2023-02-15T08:17:05.890Z,-0.39
2023-02-15T08:19:08.811Z,-0.36
2023-02-15T08:21:10.272Z,-0.33
2023-02-15T08:23:11.720Z,-0.27
2023-02-15T08:25:13.321Z,-0.22
2023-02-15T08:27:14.780Z,-0.17
2023-02-15T08:29:19.326Z,-0.11
2023-02-15T08:31:21.859Z,-0.07
2023-02-15T08:33:23.472Z,-0.03
2023-02-15T08:35:24.948Z,0.03
2023-02-15T08:37:26.984Z,0.08
2023-02-15T08:39:28.798Z,0.13
2023-02-15T08:41:38.406Z,0.18
2023-02-15T08:43:40.103Z,0.21
2023-02-15T08:45:42.443Z,0.25
2023-02-15T08:47:43.935Z,0.31
2023-02-15T08:49:45.386Z,0.38
2023-02-15T08:51:48.084Z,0.42
2023-02-15T08:53:52.102Z,0.49
2023-02-15T08:55:58.141Z,0.54
2023-02-15T08:57:59.611Z,0.59
2023-02-15T09:00:01.102Z,0.65
2023-02-15T09:02:03.949Z,0.72
2023-02-15T09:04:09.582Z,0.75
2023-02-15T09:06:11.934Z,0.81
2023-02-15T09:08:13.421Z,0.86
2023-02-15T09:10:14.893Z,0.91
2023-02-15T09:12:16.330Z,0.97
2023-02-15T09:14:24.428Z,1.02
2023-02-15T09:16:28.988Z,1.08
2023-02-15T09:18:32.739Z,1.13
2023-02-15T09:20:37.330Z,1.20
2023-02-15T09:22:38.808Z,1.26
2023-02-15T09:24:40.345Z,1.33
2023-02-15T09:26:44.589Z,1.43
2023-02-15T09:28:47.006Z,1.49
2023-02-15T09:30:48.595Z,1.55
2023-02-15T09:32:50.189Z,1.62
2023-02-15T09:34:51.639Z,1.69
2023-02-15T09:36:53.148Z,1.76
2023-02-15T09:38:59.336Z,1.82
2023-02-15T09:41:28.391Z,1.88
2023-02-15T09:43:59.241Z,1.95
2023-02-15T09:46:23.583Z,2.02
2023-02-15T09:48:46.190Z,2.12
2023-02-15T09:51:32.834Z,2.16
2023-02-15T09:53:36.900Z,2.18
2023-02-15T09:55:58.165Z,2.26
2023-02-15T09:58:13.978Z,2.34
2023-02-15T10:00:53.619Z,2.42
2023-02-15T10:03:20.777Z,2.50
2023-02-15T10:05:40.499Z,2.57
2023-02-15T10:07:41.904Z,2.64
2023-02-15T10:09:47.936Z,2.74
2023-02-15T10:12:04.734Z,2.87
2023-02-15T10:14:45.366Z,2.96
2023-02-15T10:17:22.631Z,3.11
2023-02-15T10:19:45.547Z,3.23
2023-02-15T10:22:05.811Z,3.35
2023-02-15T10:24:31.114Z,3.47
2023-02-15T10:26:43.625Z,3.61
2023-02-15T10:28:47.987Z,3.77
2023-02-15T10:30:52.609Z,3.90
2023-02-15T10:33:11.693Z,4.06
2023-02-15T10:35:32.012Z,4.21
2023-02-15T10:37:54.503Z,4.38
2023-02-15T10:40:08.434Z,4.50
2023-02-15T10:42:27.474Z,4.62
2023-02-15T10:45:05.317Z,4.73
2023-02-15T10:47:22.897Z,4.88
2023-02-15T10:49:42.459Z,5.04
2023-02-15T10:51:50.098Z,5.18
2023-02-15T10:54:23.853Z,5.35
2023-02-15T10:56:33.970Z,5.48
2023-02-15T10:58:59.927Z,5.63
2023-02-15T11:01:27.880Z,5.78
2023-02-15T11:03:47.816Z,5.96
2023-02-15T11:06:14.605Z,6.12
2023-02-15T11:08:16.635Z,6.30
2023-02-15T11:10:39.199Z,6.43
2023-02-15T11:12:44.249Z,6.60
2023-02-15T11:14:51.971Z,6.76
2023-02-15T11:17:05.868Z,7.00
2023-02-15T11:19:25.189Z,7.25
2023-02-15T11:21:48.130Z,7.77
2023-02-15T11:23:50.202Z,8.38
2023-02-15T11:25:59.901Z,9.04
2023-02-15T11:28:05.538Z,9.57
2023-02-15T11:30:15.641Z,9.95
2023-02-15T11:32:31.119Z,10.35
2023-02-15T11:34:37.421Z,10.82
2023-02-15T11:36:42.087Z,11.29
2023-02-15T11:38:45.762Z,11.73
2023-02-15T11:40:49.086Z,12.22
2023-02-15T11:42:54.858Z,12.47
2023-02-15T11:45:32.413Z,12.94
2023-02-15T11:47:34.090Z,13.42
2023-02-15T11:49:36.426Z,13.77
2023-02-15T11:51:38.019Z,14.11
2023-02-15T11:53:40.049Z,14.02
2023-02-15T11:55:47.244Z,14.18
2023-02-15T11:58:27.164Z,14.61
2023-02-15T12:00:44.216Z,14.87
2023-02-15T12:02:54.428Z,15.11
2023-02-15T12:05:02.198Z,15.16
2023-02-15T12:07:23.495Z,15.27
2023-02-15T12:09:41.780Z,15.17
2023-02-15T12:11:43.261Z,15.39
2023-02-15T12:14:12.713Z,15.73
2023-02-15T12:16:14.498Z,15.84
2023-02-15T12:18:40.446Z,16.05
2023-02-15T12:20:42.334Z,16.00
2023-02-15T12:22:51.637Z,15.89
2023-02-15T12:24:59.729Z,15.37
2023-02-15T12:27:19.656Z,14.74
2023-02-15T12:29:27.105Z,14.35
2023-02-15T12:31:44.825Z,13.96
2023-02-15T12:33:46.951Z,13.78
2023-02-15T12:35:50.842Z,13.48
2023-02-15T12:37:56.168Z,13.34
2023-02-15T12:40:00.044Z,12.99
2023-02-15T12:42:17.583Z,12.64
2023-02-15T12:44:27.674Z,12.61
2023-02-15T12:46:29.247Z,12.50
2023-02-15T12:48:30.710Z,12.60
2023-02-15T12:50:35.289Z,12.45
2023-02-15T12:52:36.858Z,12.27
2023-02-15T12:54:42.983Z,12.11
2023-02-15T12:56:44.502Z,12.14
2023-02-15T12:58:47.002Z,12.16
2023-02-15T13:00:48.834Z,11.94
2023-02-15T13:02:56.073Z,11.83
2023-02-15T13:05:05.912Z,11.83
2023-02-15T13:07:12.004Z,11.86
2023-02-15T13:09:21.003Z,11.81
2023-02-15T13:11:25.851Z,11.80
2023-02-15T13:13:33.021Z,11.89
2023-02-15T13:15:41.573Z,11.97
2023-02-15T13:17:44.933Z,12.10
2023-02-15T13:19:50.945Z,12.30
2023-02-15T13:21:54.249Z,12.16
2023-02-15T13:24:26.761Z,12.01
2023-02-15T13:26:32.245Z,11.85
2023-02-15T13:28:48.103Z,11.77
2023-02-15T13:30:50.278Z,11.74
2023-02-15T13:32:57.084Z,11.87
2023-02-15T13:35:00.535Z,11.90
2023-02-15T13:37:43.370Z,11.98
2023-02-15T13:39:52.485Z,12.07
2023-02-15T13:42:06.877Z,11.96
2023-02-15T13:44:35.601Z,11.90
2023-02-15T13:46:55.378Z,11.89
2023-02-15T13:48:59.696Z,11.92
2023-02-15T13:51:25.889Z,11.95
2023-02-15T13:53:57.072Z,12.02
2023-02-15T13:56:22.074Z,12.14
2023-02-15T13:58:45.542Z,12.29
2023-02-15T14:01:02.465Z,12.34
2023-02-15T14:03:28.318Z,12.50
2023-02-15T14:06:07.498Z,12.48
2023-02-15T14:08:27.693Z,12.38
2023-02-15T14:10:41.261Z,12.28
2023-02-15T14:12:57.924Z,12.20
2023-02-15T14:15:21.234Z,12.13
2023-02-15T14:17:59.847Z,12.05
2023-02-15T14:20:07.927Z,12.11
2023-02-15T14:22:35.447Z,12.13
2023-02-15T14:24:52.378Z,12.12
2023-02-15T14:27:13.768Z,12.07
2023-02-15T14:29:20.992Z,11.90
2023-02-15T14:31:31.611Z,11.76
2023-02-15T14:33:40.922Z,11.64
2023-02-15T14:35:43.848Z,11.52
2023-02-15T14:37:51.485Z,11.42
2023-02-15T14:40:21.162Z,11.40
2023-02-15T14:42:44.640Z,11.37
2023-02-15T14:44:58.104Z,11.30
2023-02-15T14:47:03.665Z,11.24
2023-02-15T14:49:26.615Z,11.18
2023-02-15T14:51:46.900Z,11.13
2023-02-15T14:53:48.459Z,11.08
2023-02-15T14:56:11.218Z,11.05
2023-02-15T14:58:14.544Z,10.94
2023-02-15T15:00:37.724Z,10.85
2023-02-15T15:02:53.375Z,10.83
2023-02-15T15:05:33.565Z,10.73
2023-02-15T15:07:48.597Z,10.65
2023-02-15T15:10:00.756Z,10.59
2023-02-15T15:12:14.456Z,10.59
2023-02-15T15:14:34.327Z,10.62
2023-02-15T15:16:38.909Z,10.62
2023-02-15T15:18:46.513Z,10.61
2023-02-15T15:20:51.628Z,10.59
2023-02-15T15:23:15.513Z,10.60
2023-02-15T15:25:38.765Z,10.58
2023-02-15T15:27:49.662Z,10.54
2023-02-15T15:29:51.138Z,10.50
2023-02-15T15:31:56.486Z,10.46
2023-02-15T15:34:22.727Z,10.42
2023-02-15T15:36:51.458Z,10.32
2023-02-15T15:39:16.702Z,10.26
2023-02-15T15:41:29.041Z,10.22
2023-02-15T15:43:51.490Z,10.15
2023-02-15T15:46:18.993Z,10.07
2023-02-15T15:48:31.646Z,10.01
2023-02-15T15:50:33.539Z,9.94
2023-02-15T15:52:39.598Z,9.89
2023-02-15T15:54:43.012Z,9.83
2023-02-15T15:56:52.011Z,9.76
2023-02-15T15:58:59.684Z,9.69
2023-02-15T16:01:28.104Z,9.63
2023-02-15T16:03:29.843Z,9.57
2023-02-15T16:05:41.079Z,9.52
2023-02-15T16:07:42.673Z,9.47
2023-02-15T16:09:59.638Z,9.39
2023-02-15T16:12:02.836Z,9.30
2023-02-15T16:14:04.345Z,9.20
2023-02-15T16:16:07.496Z,9.09
2023-02-15T16:18:16.132Z,9.01
2023-02-15T16:20:27.821Z,8.98
2023-02-15T16:22:30.017Z,8.92
2023-02-15T16:25:06.138Z,8.86
2023-02-15T16:27:33.966Z,8.75
2023-02-15T16:29:35.575Z,8.69
2023-02-15T16:31:37.242Z,8.66
2023-02-15T16:33:40.532Z,8.60
2023-02-15T16:35:57.263Z,8.52
2023-02-15T16:37:58.774Z,8.43
2023-02-15T16:40:00.962Z,8.34
2023-02-15T16:42:05.246Z,8.34
2023-02-15T16:44:15.840Z,8.33
2023-02-15T16:46:40.424Z,8.27
2023-02-15T16:48:46.028Z,8.19
2023-02-15T16:50:51.520Z,8.12
2023-02-15T16:52:53.335Z,8.10
2023-02-15T16:54:58.950Z,8.07
2023-02-15T16:57:00.788Z,8.02
2023-02-15T16:59:02.873Z,7.99
2023-02-15T17:01:08.867Z,7.95
2023-02-15T17:03:13.334Z,7.87
2023-02-15T17:05:20.863Z,7.81
2023-02-15T17:07:22.594Z,7.77
2023-02-15T17:09:26.319Z,7.74
2023-02-15T17:11:42.305Z,7.68
2023-02-15T17:14:07.671Z,7.65
2023-02-15T17:16:34.279Z,7.59
2023-02-15T17:18:38.489Z,7.53
2023-02-15T17:20:42.905Z,7.49
2023-02-15T17:22:44.382Z,7.44
2023-02-15T17:24:48.972Z,7.40
2023-02-15T17:27:00.695Z,7.35
2023-02-15T17:29:11.301Z,7.32
2023-02-15T17:31:17.274Z,7.27
2023-02-15T17:33:29.892Z,7.20
2023-02-15T17:35:33.709Z,7.13
2023-02-15T17:37:38.122Z,7.07
2023-02-15T17:39:41.361Z,7.02
2023-02-15T17:41:42.980Z,6.99
2023-02-15T17:43:44.399Z,6.98
2023-02-15T17:45:50.111Z,6.95
2023-02-15T17:47:51.882Z,6.90
2023-02-15T17:49:53.638Z,6.87
2023-02-15T17:51:55.173Z,6.83
2023-02-15T17:54:15.346Z,6.80
2023-02-15T17:56:16.764Z,6.75
2023-02-15T17:58:19.598Z,6.72
2023-02-15T18:00:40.039Z,6.69
2023-02-15T18:03:00.669Z,6.66
2023-02-15T18:05:20.518Z,6.60
2023-02-15T18:07:40.291Z,6.55
2023-02-15T18:10:00.812Z,6.51
2023-02-15T18:12:03.251Z,6.47
2023-02-15T18:14:07.215Z,6.47
2023-02-15T18:16:22.843Z,6.43
2023-02-15T18:18:24.440Z,6.40
2023-02-15T18:20:32.691Z,6.36
2023-02-15T18:22:34.221Z,6.31
2023-02-15T18:24:35.679Z,6.27
2023-02-15T18:26:37.166Z,6.26
2023-02-15T18:28:38.654Z,6.21
2023-02-15T18:30:45.071Z,6.19
2023-02-15T18:32:48.297Z,6.14
2023-02-15T18:34:49.793Z,6.12
2023-02-15T18:36:52.343Z,6.08
2023-02-15T18:38:57.890Z,6.04
2023-02-15T18:40:59.381Z,5.98
2023-02-15T18:43:00.909Z,5.95
2023-02-15T18:45:12.368Z,5.92
2023-02-15T18:47:13.841Z,5.89
2023-02-15T18:49:15.294Z,5.85
2023-02-15T18:51:21.638Z,5.82
2023-02-15T18:53:23.332Z,5.76
2023-02-15T18:55:27.964Z,5.72
2023-02-15T18:57:30.305Z,5.68
2023-02-15T18:59:32.497Z,5.64
2023-02-15T19:01:34.011Z,5.59
2023-02-15T19:03:35.491Z,5.53
2023-02-15T19:05:37.024Z,5.50
2023-02-15T19:07:39.294Z,5.46
2023-02-15T19:09:41.374Z,5.42
2023-02-15T19:11:48.155Z,5.38
2023-02-15T19:13:52.301Z,5.35
2023-02-15T19:15:53.768Z,5.31
2023-02-15T19:17:55.724Z,5.26
2023-02-15T19:19:57.182Z,5.23
2023-02-15T19:21:58.742Z,5.20
2023-02-15T19:24:05.336Z,5.17
2023-02-15T19:26:06.824Z,5.13
2023-02-15T19:28:33.178Z,5.11
2023-02-15T19:30:34.676Z,5.08
2023-02-15T19:32:36.208Z,5.04
2023-02-15T19:34:37.816Z,5.02
2023-02-15T19:36:39.611Z,4.98
2023-02-15T19:38:41.727Z,4.95
2023-02-15T19:40:43.552Z,4.90
2023-02-15T19:42:45.023Z,4.88
2023-02-15T19:44:46.489Z,4.86
2023-02-15T19:46:48.404Z,4.83
2023-02-15T19:48:51.078Z,4.82
2023-02-15T19:50:52.922Z,4.77
2023-02-15T19:52:54.504Z,4.72
2023-02-15T19:54:56.066Z,4.70
2023-02-15T19:56:57.800Z,4.68
2023-02-15T19:58:59.339Z,4.66
2023-02-15T20:01:02.258Z,4.65
2023-02-15T20:03:03.937Z,4.60
2023-02-15T20:05:05.833Z,4.58
2023-02-15T20:07:16.548Z,4.56
2023-02-15T20:09:25.357Z,4.52
2023-02-15T20:11:26.762Z,4.45
2023-02-15T20:13:29.016Z,4.44
2023-02-15T20:15:33.643Z,4.41
2023-02-15T20:17:35.173Z,4.39
2023-02-15T20:19:39.000Z,4.36
2023-02-15T20:21:41.678Z,4.33
2023-02-15T20:23:43.169Z,4.31
2023-02-15T20:25:44.867Z,4.30
2023-02-15T20:27:47.255Z,4.29
2023-02-15T20:29:50.462Z,4.28
2023-02-15T20:31:55.206Z,4.27
2023-02-15T20:33:58.514Z,4.26
2023-02-15T20:36:00.078Z,4.25
2023-02-15T20:38:04.215Z,4.25
2023-02-15T20:40:17.874Z,4.24
2023-02-15T20:42:19.653Z,4.22
2023-02-15T20:44:31.073Z,4.21
2023-02-15T20:46:32.569Z,4.19
2023-02-15T20:48:34.100Z,4.17
2023-02-15T20:50:35.777Z,4.14
2023-02-15T20:52:37.304Z,4.14
2023-02-15T20:54:39.267Z,4.13
2023-02-15T20:56:40.834Z,4.12
2023-02-15T20:58:42.467Z,4.12
2023-02-15T21:00:43.961Z,4.09
2023-02-15T21:02:47.354Z,4.08
2023-02-15T21:04:49.164Z,4.07
2023-02-15T21:06:50.951Z,4.07
2023-02-15T21:08:52.424Z,4.06
2023-02-15T21:10:54.701Z,4.05
2023-02-15T21:12:58.550Z,4.03
2023-02-15T21:14:59.998Z,4.01
2023-02-15T21:17:01.477Z,3.98
2023-02-15T21:19:02.950Z,3.96
2023-02-15T21:21:06.419Z,3.94
2023-02-15T21:23:13.801Z,3.94
2023-02-15T21:25:20.239Z,3.92
2023-02-15T21:27:22.324Z,3.92
2023-02-15T21:29:26.839Z,3.91
2023-02-15T21:31:28.715Z,3.91
2023-02-15T21:33:30.298Z,3.90
2023-02-15T21:35:31.762Z,3.89
2023-02-15T21:37:36.376Z,3.88
2023-02-15T21:39:37.903Z,3.85
2023-02-15T21:42:04.421Z,3.83
2023-02-15T21:44:39.468Z,3.81
2023-02-15T21:46:59.426Z,3.80
2023-02-15T21:49:04.729Z,3.76
2023-02-15T21:51:24.708Z,3.75
2023-02-15T21:53:34.635Z,3.74
2023-02-15T21:55:36.121Z,3.74
2023-02-15T21:57:37.558Z,3.72
2023-02-15T21:59:39.002Z,3.70
2023-02-15T22:01:42.862Z,3.70
2023-02-15T22:03:44.338Z,3.67
2023-02-15T22:05:45.820Z,3.65
2023-02-15T22:07:47.799Z,3.64
2023-02-15T22:09:49.389Z,3.62
2023-02-15T22:11:52.841Z,3.60
2023-02-15T22:13:54.363Z,3.57
2023-02-15T22:15:56.774Z,3.54
2023-02-15T22:17:58.223Z,3.50
2023-02-15T22:20:00.011Z,3.51
2023-02-15T22:22:01.494Z,3.50
2023-02-15T22:24:03.049Z,3.49
2023-02-15T22:26:14.378Z,3.49
2023-02-15T22:28:16.852Z,3.50
2023-02-15T22:30:32.847Z,3.47
2023-02-15T22:32:34.443Z,3.46
2023-02-15T22:34:36.091Z,3.45
2023-02-15T22:36:38.876Z,3.45
2023-02-15T22:38:40.323Z,3.44
2023-02-15T22:40:41.875Z,3.44
2023-02-15T22:42:47.322Z,3.43
2023-02-15T22:44:48.869Z,3.41
2023-02-15T22:46:51.204Z,3.40
2023-02-15T22:48:52.961Z,3.39
2023-02-15T22:50:54.971Z,3.39
2023-02-15T22:52:56.772Z,3.40
2023-02-15T22:54:58.222Z,3.39
2023-02-15T22:57:00.801Z,3.39
2023-02-15T22:59:05.946Z,3.39
2023-02-15T23:01:21.766Z,3.37
2023-02-15T23:03:28.830Z,3.38
2023-02-15T23:05:31.252Z,3.37
2023-02-15T23:07:32.834Z,3.38
2023-02-15T23:09:34.291Z,3.38
2023-02-15T23:11:35.846Z,3.38
2023-02-15T23:13:38.108Z,3.40
2023-02-15T23:15:41.663Z,3.40
2023-02-15T23:17:43.124Z,3.41
2023-02-15T23:19:44.719Z,3.42
2023-02-15T23:21:46.478Z,3.50
2023-02-15T23:23:54.320Z,3.51
2023-02-15T23:25:56.180Z,3.50
2023-02-15T23:27:57.651Z,3.51
2023-02-15T23:29:59.128Z,3.51
2023-02-15T23:32:00.770Z,3.51
2023-02-15T23:34:13.793Z,3.49
2023-02-15T23:36:24.517Z,3.46
2023-02-15T23:38:30.894Z,3.44
2023-02-15T23:40:50.739Z,3.44
2023-02-15T23:42:52.221Z,3.44
2023-02-15T23:44:53.685Z,3.41
2023-02-15T23:46:56.558Z,3.37
2023-02-15T23:48:58.078Z,3.33
2023-02-15T23:50:59.887Z,3.30
2023-02-15T23:53:01.357Z,3.29
2023-02-15T23:55:02.815Z,3.27
2023-02-15T23:57:04.583Z,3.25
2023-02-15T23:59:06.658Z,3.23
